sensor_id;sensor_type;location;lat;lon;timestamp;P1;durP1;ratioP1;P2;durP2;ratioP2
15878;SDS011;61999;51.514;14.614;2022-11-02T00:00:40;7.17;;;5.80;;
15878;SDS011;61999;51.514;14.614;2022-11-02T00:03:08;6.93;;;5.90;;
15878;SDS011;61999;51.514;14.614;2022-11-02T00:05:36;7.93;;;5.80;;
15878;SDS011;61999;51.514;14.614;2022-11-02T00:08:04;8.30;;;5.67;;
15878;SDS011;61999;51.514;14.614;2022-11-02T00:10:32;6.93;;;5.73;;
15878;SDS011;61999;51.514;14.614;2022-11-02T00:13:00;7.10;;;6.07;;
15878;SDS011;61999;51.514;14.614;2022-11-02T00:15:28;8.87;;;6.53;;
15878;SDS011;61999;51.514;14.614;2022-11-02T00:18:02;8.77;;;6.33;;
15878;SDS011;61999;51.514;14.614;2022-11-02T00:20:34;7.10;;;5.53;;
15878;SDS011;61999;51.514;14.614;2022-11-02T00:23:03;6.77;;;5.60;;
15878;SDS011;61999;51.514;14.614;2022-11-02T00:25:36;9.23;;;5.97;;
15878;SDS011;61999;51.514;14.614;2022-11-02T00:28:08;7.23;;;5.67;;
15878;SDS011;61999;51.514;14.614;2022-11-02T00:30:36;7.40;;;5.70;;
15878;SDS011;61999;51.514;14.614;2022-11-02T00:33:06;7.80;;;5.63;;
15878;SDS011;61999;51.514;14.614;2022-11-02T00:35:34;9.17;;;5.97;;
15878;SDS011;61999;51.514;14.614;2022-11-02T00:38:03;7.33;;;5.77;;
15878;SDS011;61999;51.514;14.614;2022-11-02T00:40:31;6.87;;;6.03;;
15878;SDS011;61999;51.514;14.614;2022-11-02T00:42:59;9.33;;;5.93;;
15878;SDS011;61999;51.514;14.614;2022-11-02T00:45:27;7.53;;;5.67;;
15878;SDS011;61999;51.514;14.614;2022-11-02T00:47:55;7.03;;;6.03;;
15878;SDS011;61999;51.514;14.614;2022-11-02T00:50:24;10.17;;;6.40;;
15878;SDS011;61999;51.514;14.614;2022-11-02T00:52:52;8.53;;;6.50;;
15878;SDS011;61999;51.514;14.614;2022-11-02T00:55:20;8.23;;;6.60;;
15878;SDS011;61999;51.514;14.614;2022-11-02T00:57:48;7.47;;;6.37;;
15878;SDS011;61999;51.514;14.614;2022-11-02T01:00:16;7.87;;;5.93;;
15878;SDS011;61999;51.514;14.614;2022-11-02T01:02:44;8.67;;;5.87;;
15878;SDS011;61999;51.514;14.614;2022-11-02T01:05:12;8.03;;;6.13;;
15878;SDS011;61999;51.514;14.614;2022-11-02T01:07:41;6.50;;;5.67;;
15878;SDS011;61999;51.514;14.614;2022-11-02T01:10:09;6.60;;;5.67;;
15878;SDS011;61999;51.514;14.614;2022-11-02T01:12:38;8.07;;;6.23;;
15878;SDS011;61999;51.514;14.614;2022-11-02T01:15:07;7.30;;;5.70;;
15878;SDS011;61999;51.514;14.614;2022-11-02T01:17:36;7.60;;;5.77;;
15878;SDS011;61999;51.514;14.614;2022-11-02T01:20:05;6.77;;;6.03;;
15878;SDS011;61999;51.514;14.614;2022-11-02T01:22:34;7.67;;;6.30;;
15878;SDS011;61999;51.514;14.614;2022-11-02T01:25:04;8.90;;;5.60;;
15878;SDS011;61999;51.514;14.614;2022-11-02T01:27:33;10.23;;;5.80;;
15878;SDS011;61999;51.514;14.614;2022-11-02T01:30:01;7.30;;;5.37;;
15878;SDS011;61999;51.514;14.614;2022-11-02T01:32:30;6.90;;;5.53;;
15878;SDS011;61999;51.514;14.614;2022-11-02T01:34:58;5.73;;;5.00;;
15878;SDS011;61999;51.514;14.614;2022-11-02T01:37:27;8.47;;;6.10;;
15878;SDS011;61999;51.514;14.614;2022-11-02T01:39:55;6.50;;;5.30;;
15878;SDS011;61999;51.514;14.614;2022-11-02T01:42:25;7.77;;;6.20;;
15878;SDS011;61999;51.514;14.614;2022-11-02T01:44:54;6.97;;;5.53;;
15878;SDS011;61999;51.514;14.614;2022-11-02T01:47:23;8.63;;;5.90;;
15878;SDS011;61999;51.514;14.614;2022-11-02T01:49:58;7.20;;;5.40;;
15878;SDS011;61999;51.514;14.614;2022-11-02T01:52:32;6.30;;;4.73;;
15878;SDS011;61999;51.514;14.614;2022-11-02T01:55:03;6.10;;;5.00;;
15878;SDS011;61999;51.514;14.614;2022-11-02T01:57:40;8.57;;;5.20;;
15878;SDS011;61999;51.514;14.614;2022-11-02T02:00:13;5.57;;;4.70;;
15878;SDS011;61999;51.514;14.614;2022-11-02T02:02:44;7.90;;;4.67;;
15878;SDS011;61999;51.514;14.614;2022-11-02T02:05:19;6.27;;;4.50;;
15878;SDS011;61999;51.514;14.614;2022-11-02T02:07:50;5.07;;;4.00;;
15878;SDS011;61999;51.514;14.614;2022-11-02T02:10:19;6.37;;;4.80;;
15878;SDS011;61999;51.514;14.614;2022-11-02T02:12:49;5.33;;;4.27;;
15878;SDS011;61999;51.514;14.614;2022-11-02T02:15:17;5.60;;;4.37;;
15878;SDS011;61999;51.514;14.614;2022-11-02T02:17:51;6.00;;;4.57;;
15878;SDS011;61999;51.514;14.614;2022-11-02T02:20:35;4.97;;;4.17;;
15878;SDS011;61999;51.514;14.614;2022-11-02T02:23:36;5.43;;;4.07;;
15878;SDS011;61999;51.514;14.614;2022-11-02T02:26:46;5.50;;;3.93;;
15878;SDS011;61999;51.514;14.614;2022-11-02T02:29:39;5.17;;;3.87;;
15878;SDS011;61999;51.514;14.614;2022-11-02T02:32:32;4.93;;;3.77;;
15878;SDS011;61999;51.514;14.614;2022-11-02T02:35:14;4.30;;;3.90;;
15878;SDS011;61999;51.514;14.614;2022-11-02T02:37:51;6.73;;;4.47;;
15878;SDS011;61999;51.514;14.614;2022-11-02T02:40:26;6.90;;;4.67;;
15878;SDS011;61999;51.514;14.614;2022-11-02T02:43:02;6.77;;;4.20;;
15878;SDS011;61999;51.514;14.614;2022-11-02T02:45:38;6.03;;;4.77;;
15878;SDS011;61999;51.514;14.614;2022-11-02T02:48:13;5.57;;;4.10;;
15878;SDS011;61999;51.514;14.614;2022-11-02T02:50:46;4.90;;;3.67;;
15878;SDS011;61999;51.514;14.614;2022-11-02T02:53:18;6.73;;;3.97;;
15878;SDS011;61999;51.514;14.614;2022-11-02T02:55:51;5.53;;;3.80;;
15878;SDS011;61999;51.514;14.614;2022-11-02T02:58:20;7.90;;;4.00;;
15878;SDS011;61999;51.514;14.614;2022-11-02T03:00:55;6.17;;;3.90;;
15878;SDS011;61999;51.514;14.614;2022-11-02T03:03:26;4.27;;;3.67;;
15878;SDS011;61999;51.514;14.614;2022-11-02T03:05:59;4.53;;;3.13;;
15878;SDS011;61999;51.514;14.614;2022-11-02T03:08:34;4.50;;;3.20;;
15878;SDS011;61999;51.514;14.614;2022-11-02T03:11:07;4.90;;;3.23;;
15878;SDS011;61999;51.514;14.614;2022-11-02T03:13:43;4.80;;;3.23;;
15878;SDS011;61999;51.514;14.614;2022-11-02T03:16:40;3.70;;;3.30;;
15878;SDS011;61999;51.514;14.614;2022-11-02T03:19:30;3.33;;;3.03;;
15878;SDS011;61999;51.514;14.614;2022-11-02T03:22:14;4.40;;;3.13;;
15878;SDS011;61999;51.514;14.614;2022-11-02T03:24:56;3.57;;;3.07;;
15878;SDS011;61999;51.514;14.614;2022-11-02T03:27:36;4.83;;;3.50;;
15878;SDS011;61999;51.514;14.614;2022-11-02T03:30:09;7.20;;;3.40;;
15878;SDS011;61999;51.514;14.614;2022-11-02T03:32:46;5.23;;;4.20;;
15878;SDS011;61999;51.514;14.614;2022-11-02T03:35:24;5.10;;;3.90;;
15878;SDS011;61999;51.514;14.614;2022-11-02T03:38:02;5.27;;;3.87;;
15878;SDS011;61999;51.514;14.614;2022-11-02T03:40:40;5.63;;;3.43;;
15878;SDS011;61999;51.514;14.614;2022-11-02T03:43:13;5.13;;;3.53;;
15878;SDS011;61999;51.514;14.614;2022-11-02T03:45:45;4.83;;;3.40;;
15878;SDS011;61999;51.514;14.614;2022-11-02T03:48:21;3.30;;;3.00;;
15878;SDS011;61999;51.514;14.614;2022-11-02T03:50:56;3.80;;;3.13;;
15878;SDS011;61999;51.514;14.614;2022-11-02T03:53:30;4.53;;;3.50;;
15878;SDS011;61999;51.514;14.614;2022-11-02T03:56:08;6.13;;;4.20;;
15878;SDS011;61999;51.514;14.614;2022-11-02T03:58:45;5.00;;;4.20;;
15878;SDS011;61999;51.514;14.614;2022-11-02T04:01:13;5.17;;;4.20;;
15878;SDS011;61999;51.514;14.614;2022-11-02T04:03:46;6.37;;;4.67;;
15878;SDS011;61999;51.514;14.614;2022-11-02T04:06:15;5.73;;;4.27;;
15878;SDS011;61999;51.514;14.614;2022-11-02T04:08:43;5.13;;;4.00;;
15878;SDS011;61999;51.514;14.614;2022-11-02T04:11:15;6.43;;;4.37;;
15878;SDS011;61999;51.514;14.614;2022-11-02T04:14:01;5.17;;;4.17;;
15878;SDS011;61999;51.514;14.614;2022-11-02T04:16:46;5.37;;;4.17;;
15878;SDS011;61999;51.514;14.614;2022-11-02T04:19:15;5.03;;;4.33;;
15878;SDS011;61999;51.514;14.614;2022-11-02T04:21:55;6.03;;;4.03;;
15878;SDS011;61999;51.514;14.614;2022-11-02T04:24:41;4.37;;;3.40;;
15878;SDS011;61999;51.514;14.614;2022-11-02T04:27:27;4.97;;;3.67;;
15878;SDS011;61999;51.514;14.614;2022-11-02T04:29:54;5.07;;;3.83;;
15878;SDS011;61999;51.514;14.614;2022-11-02T04:32:22;5.77;;;3.83;;
15878;SDS011;61999;51.514;14.614;2022-11-02T04:35:09;4.67;;;3.87;;
15878;SDS011;61999;51.514;14.614;2022-11-02T04:37:38;6.70;;;4.07;;
15878;SDS011;61999;51.514;14.614;2022-11-02T04:40:24;7.00;;;4.23;;
15878;SDS011;61999;51.514;14.614;2022-11-02T04:42:52;5.90;;;4.37;;
15878;SDS011;61999;51.514;14.614;2022-11-02T04:45:20;5.70;;;4.27;;
15878;SDS011;61999;51.514;14.614;2022-11-02T04:47:48;6.83;;;4.60;;
15878;SDS011;61999;51.514;14.614;2022-11-02T04:50:17;6.97;;;4.60;;
15878;SDS011;61999;51.514;14.614;2022-11-02T04:52:45;7.87;;;5.10;;
15878;SDS011;61999;51.514;14.614;2022-11-02T04:55:13;8.63;;;4.50;;
15878;SDS011;61999;51.514;14.614;2022-11-02T04:57:43;8.43;;;5.40;;
15878;SDS011;61999;51.514;14.614;2022-11-02T05:00:12;9.40;;;4.80;;
15878;SDS011;61999;51.514;14.614;2022-11-02T05:02:41;6.50;;;4.07;;
15878;SDS011;61999;51.514;14.614;2022-11-02T05:05:09;8.67;;;4.77;;
15878;SDS011;61999;51.514;14.614;2022-11-02T05:07:39;4.80;;;3.43;;
15878;SDS011;61999;51.514;14.614;2022-11-02T05:10:07;5.67;;;3.83;;
15878;SDS011;61999;51.514;14.614;2022-11-02T05:12:36;7.20;;;4.03;;
15878;SDS011;61999;51.514;14.614;2022-11-02T05:15:05;7.33;;;4.17;;
15878;SDS011;61999;51.514;14.614;2022-11-02T05:17:33;4.60;;;3.30;;
15878;SDS011;61999;51.514;14.614;2022-11-02T05:20:02;4.27;;;3.23;;
15878;SDS011;61999;51.514;14.614;2022-11-02T05:22:31;7.80;;;4.23;;
15878;SDS011;61999;51.514;14.614;2022-11-02T05:25:00;5.70;;;3.87;;
15878;SDS011;61999;51.514;14.614;2022-11-02T05:27:28;6.43;;;3.27;;
15878;SDS011;61999;51.514;14.614;2022-11-02T05:29:56;5.63;;;3.77;;
15878;SDS011;61999;51.514;14.614;2022-11-02T05:32:25;5.13;;;3.53;;
15878;SDS011;61999;51.514;14.614;2022-11-02T05:34:53;6.43;;;3.73;;
15878;SDS011;61999;51.514;14.614;2022-11-02T05:37:21;6.17;;;3.80;;
15878;SDS011;61999;51.514;14.614;2022-11-02T05:39:49;5.33;;;3.53;;
15878;SDS011;61999;51.514;14.614;2022-11-02T05:42:18;6.13;;;3.33;;
15878;SDS011;61999;51.514;14.614;2022-11-02T05:44:46;5.43;;;3.57;;
15878;SDS011;61999;51.514;14.614;2022-11-02T05:47:14;4.93;;;3.27;;
15878;SDS011;61999;51.514;14.614;2022-11-02T05:49:42;9.60;;;3.40;;
15878;SDS011;61999;51.514;14.614;2022-11-02T05:52:10;6.57;;;3.47;;
15878;SDS011;61999;51.514;14.614;2022-11-02T05:54:38;4.00;;;3.20;;
15878;SDS011;61999;51.514;14.614;2022-11-02T05:57:06;3.97;;;3.17;;
15878;SDS011;61999;51.514;14.614;2022-11-02T05:59:35;6.07;;;3.37;;
15878;SDS011;61999;51.514;14.614;2022-11-02T06:02:03;6.53;;;3.20;;
15878;SDS011;61999;51.514;14.614;2022-11-02T06:04:31;4.93;;;2.90;;
15878;SDS011;61999;51.514;14.614;2022-11-02T06:06:59;4.60;;;3.20;;
15878;SDS011;61999;51.514;14.614;2022-11-02T06:09:27;5.73;;;3.40;;
15878;SDS011;61999;51.514;14.614;2022-11-02T06:11:55;7.37;;;3.60;;
15878;SDS011;61999;51.514;14.614;2022-11-02T06:14:22;6.00;;;3.60;;
15878;SDS011;61999;51.514;14.614;2022-11-02T06:16:52;4.93;;;3.70;;
15878;SDS011;61999;51.514;14.614;2022-11-02T06:19:20;5.23;;;3.53;;
15878;SDS011;61999;51.514;14.614;2022-11-02T06:21:47;5.53;;;3.77;;
15878;SDS011;61999;51.514;14.614;2022-11-02T06:24:15;5.00;;;3.30;;
15878;SDS011;61999;51.514;14.614;2022-11-02T06:26:43;4.37;;;3.27;;
15878;SDS011;61999;51.514;14.614;2022-11-02T06:29:12;6.73;;;3.77;;
15878;SDS011;61999;51.514;14.614;2022-11-02T06:31:40;4.77;;;3.90;;
15878;SDS011;61999;51.514;14.614;2022-11-02T06:34:09;6.67;;;3.37;;
15878;SDS011;61999;51.514;14.614;2022-11-02T06:36:37;8.43;;;3.53;;
15878;SDS011;61999;51.514;14.614;2022-11-02T06:39:05;7.93;;;3.47;;
15878;SDS011;61999;51.514;14.614;2022-11-02T06:41:33;7.20;;;4.13;;
15878;SDS011;61999;51.514;14.614;2022-11-02T06:44:00;5.70;;;3.80;;
15878;SDS011;61999;51.514;14.614;2022-11-02T06:46:28;11.47;;;4.23;;
15878;SDS011;61999;51.514;14.614;2022-11-02T06:48:57;8.87;;;4.47;;
15878;SDS011;61999;51.514;14.614;2022-11-02T06:51:26;7.27;;;3.27;;
15878;SDS011;61999;51.514;14.614;2022-11-02T06:53:54;4.87;;;3.27;;
15878;SDS011;61999;51.514;14.614;2022-11-02T06:56:25;6.63;;;3.97;;
15878;SDS011;61999;51.514;14.614;2022-11-02T06:59:12;9.43;;;4.03;;
15878;SDS011;61999;51.514;14.614;2022-11-02T07:01:40;7.67;;;3.70;;
15878;SDS011;61999;51.514;14.614;2022-11-02T07:04:08;6.97;;;3.47;;
15878;SDS011;61999;51.514;14.614;2022-11-02T07:06:37;8.40;;;3.40;;
15878;SDS011;61999;51.514;14.614;2022-11-02T07:09:05;6.27;;;3.40;;
15878;SDS011;61999;51.514;14.614;2022-11-02T07:11:33;5.53;;;3.17;;
15878;SDS011;61999;51.514;14.614;2022-11-02T07:14:01;5.37;;;3.23;;
15878;SDS011;61999;51.514;14.614;2022-11-02T07:16:28;4.47;;;2.83;;
15878;SDS011;61999;51.514;14.614;2022-11-02T07:18:56;3.17;;;2.63;;
15878;SDS011;61999;51.514;14.614;2022-11-02T07:21:24;5.60;;;2.90;;
15878;SDS011;61999;51.514;14.614;2022-11-02T07:23:54;4.83;;;3.07;;
15878;SDS011;61999;51.514;14.614;2022-11-02T07:26:22;6.37;;;3.30;;
15878;SDS011;61999;51.514;14.614;2022-11-02T07:28:51;4.70;;;2.70;;
15878;SDS011;61999;51.514;14.614;2022-11-02T07:31:20;6.53;;;3.30;;
15878;SDS011;61999;51.514;14.614;2022-11-02T07:33:48;8.63;;;3.70;;
15878;SDS011;61999;51.514;14.614;2022-11-02T07:36:16;7.53;;;4.27;;
15878;SDS011;61999;51.514;14.614;2022-11-02T07:38:44;10.70;;;4.70;;
15878;SDS011;61999;51.514;14.614;2022-11-02T07:41:13;7.23;;;4.50;;
15878;SDS011;61999;51.514;14.614;2022-11-02T07:43:41;6.97;;;4.57;;
15878;SDS011;61999;51.514;14.614;2022-11-02T07:46:09;10.07;;;4.73;;
15878;SDS011;61999;51.514;14.614;2022-11-02T07:48:37;10.03;;;5.00;;
15878;SDS011;61999;51.514;14.614;2022-11-02T07:51:05;7.60;;;4.47;;
15878;SDS011;61999;51.514;14.614;2022-11-02T07:53:33;9.83;;;4.43;;
15878;SDS011;61999;51.514;14.614;2022-11-02T07:56:01;6.93;;;4.57;;
15878;SDS011;61999;51.514;14.614;2022-11-02T07:58:31;6.07;;;4.40;;
15878;SDS011;61999;51.514;14.614;2022-11-02T08:01:00;6.70;;;4.07;;
15878;SDS011;61999;51.514;14.614;2022-11-02T08:03:28;10.97;;;4.90;;
15878;SDS011;61999;51.514;14.614;2022-11-02T08:05:59;6.00;;;4.10;;
15878;SDS011;61999;51.514;14.614;2022-11-02T08:08:27;7.67;;;4.63;;
15878;SDS011;61999;51.514;14.614;2022-11-02T08:11:01;7.20;;;4.40;;
15878;SDS011;61999;51.514;14.614;2022-11-02T08:13:34;7.67;;;4.80;;
15878;SDS011;61999;51.514;14.614;2022-11-02T08:16:27;6.60;;;4.20;;
15878;SDS011;61999;51.514;14.614;2022-11-02T08:19:21;8.40;;;3.97;;
15878;SDS011;61999;51.514;14.614;2022-11-02T08:22:13;7.40;;;4.23;;
15878;SDS011;61999;51.514;14.614;2022-11-02T08:24:42;8.13;;;4.10;;
15878;SDS011;61999;51.514;14.614;2022-11-02T08:27:34;6.83;;;3.83;;
15878;SDS011;61999;51.514;14.614;2022-11-02T08:30:29;6.30;;;3.60;;
15878;SDS011;61999;51.514;14.614;2022-11-02T08:33:01;6.03;;;3.80;;
15878;SDS011;61999;51.514;14.614;2022-11-02T08:35:31;7.50;;;3.83;;
15878;SDS011;61999;51.514;14.614;2022-11-02T08:38:02;7.53;;;3.63;;
15878;SDS011;61999;51.514;14.614;2022-11-02T08:40:55;5.67;;;3.20;;
15878;SDS011;61999;51.514;14.614;2022-11-02T08:43:46;7.47;;;3.20;;
15878;SDS011;61999;51.514;14.614;2022-11-02T08:46:40;7.97;;;3.47;;
15878;SDS011;61999;51.514;14.614;2022-11-02T08:49:31;7.43;;;3.63;;
15878;SDS011;61999;51.514;14.614;2022-11-02T08:52:24;8.17;;;3.90;;
15878;SDS011;61999;51.514;14.614;2022-11-02T08:55:16;6.60;;;3.30;;
15878;SDS011;61999;51.514;14.614;2022-11-02T08:58:08;5.97;;;3.17;;
15878;SDS011;61999;51.514;14.614;2022-11-02T09:01:00;5.37;;;3.20;;
15878;SDS011;61999;51.514;14.614;2022-11-02T09:03:54;8.60;;;4.10;;
15878;SDS011;61999;51.514;14.614;2022-11-02T09:06:45;7.23;;;3.57;;
15878;SDS011;61999;51.514;14.614;2022-11-02T09:09:38;4.63;;;2.90;;
15878;SDS011;61999;51.514;14.614;2022-11-02T09:12:30;8.33;;;4.00;;
15878;SDS011;61999;51.514;14.614;2022-11-02T09:15:24;6.23;;;3.07;;
15878;SDS011;61999;51.514;14.614;2022-11-02T09:18:16;7.57;;;3.33;;
15878;SDS011;61999;51.514;14.614;2022-11-02T09:21:11;6.10;;;2.97;;
15878;SDS011;61999;51.514;14.614;2022-11-02T09:24:04;6.27;;;3.67;;
15878;SDS011;61999;51.514;14.614;2022-11-02T09:26:56;4.80;;;2.20;;
15878;SDS011;61999;51.514;14.614;2022-11-02T09:29:48;6.20;;;2.60;;
15878;SDS011;61999;51.514;14.614;2022-11-02T09:32:21;6.93;;;2.33;;
15878;SDS011;61999;51.514;14.614;2022-11-02T09:34:49;3.57;;;1.77;;
15878;SDS011;61999;51.514;14.614;2022-11-02T09:37:24;6.60;;;2.40;;
15878;SDS011;61999;51.514;14.614;2022-11-02T09:39:52;6.27;;;2.20;;
15878;SDS011;61999;51.514;14.614;2022-11-02T09:42:48;6.33;;;2.27;;
15878;SDS011;61999;51.514;14.614;2022-11-02T09:45:57;6.50;;;2.03;;
15878;SDS011;61999;51.514;14.614;2022-11-02T09:48:32;3.80;;;1.43;;
15878;SDS011;61999;51.514;14.614;2022-11-02T09:51:07;8.00;;;2.47;;
15878;SDS011;61999;51.514;14.614;2022-11-02T09:54:07;4.70;;;1.37;;
15878;SDS011;61999;51.514;14.614;2022-11-02T09:57:09;4.40;;;1.80;;
15878;SDS011;61999;51.514;14.614;2022-11-02T10:00:08;3.17;;;1.23;;
15878;SDS011;61999;51.514;14.614;2022-11-02T10:03:05;3.40;;;1.40;;
15878;SDS011;61999;51.514;14.614;2022-11-02T10:06:11;4.33;;;1.37;;
15878;SDS011;61999;51.514;14.614;2022-11-02T10:09:12;1.90;;;1.30;;
15878;SDS011;61999;51.514;14.614;2022-11-02T10:12:15;5.57;;;1.47;;
15878;SDS011;61999;51.514;14.614;2022-11-02T10:15:17;5.30;;;1.47;;
15878;SDS011;61999;51.514;14.614;2022-11-02T10:18:16;2.37;;;1.40;;
15878;SDS011;61999;51.514;14.614;2022-11-02T10:21:15;3.50;;;1.20;;
15878;SDS011;61999;51.514;14.614;2022-11-02T10:23:48;4.10;;;1.30;;
15878;SDS011;61999;51.514;14.614;2022-11-02T10:26:22;2.93;;;1.70;;
15878;SDS011;61999;51.514;14.614;2022-11-02T10:29:22;7.20;;;1.67;;
15878;SDS011;61999;51.514;14.614;2022-11-02T10:32:30;3.83;;;1.40;;
15878;SDS011;61999;51.514;14.614;2022-11-02T10:35:27;5.80;;;1.43;;
15878;SDS011;61999;51.514;14.614;2022-11-02T10:38:32;3.87;;;1.33;;
15878;SDS011;61999;51.514;14.614;2022-11-02T10:41:20;4.93;;;1.77;;
15878;SDS011;61999;51.514;14.614;2022-11-02T10:44:23;4.47;;;1.50;;
15878;SDS011;61999;51.514;14.614;2022-11-02T10:47:10;5.43;;;1.50;;
15878;SDS011;61999;51.514;14.614;2022-11-02T10:50:00;3.23;;;1.27;;
15878;SDS011;61999;51.514;14.614;2022-11-02T10:52:45;2.63;;;1.30;;
15878;SDS011;61999;51.514;14.614;2022-11-02T10:55:16;4.33;;;1.37;;
15878;SDS011;61999;51.514;14.614;2022-11-02T10:57:54;3.57;;;1.63;;
15878;SDS011;61999;51.514;14.614;2022-11-02T11:00:27;4.00;;;1.80;;
15878;SDS011;61999;51.514;14.614;2022-11-02T11:03:01;4.97;;;1.40;;
15878;SDS011;61999;51.514;14.614;2022-11-02T11:05:42;9.43;;;1.77;;
15878;SDS011;61999;51.514;14.614;2022-11-02T11:08:26;5.00;;;1.20;;
15878;SDS011;61999;51.514;14.614;2022-11-02T11:11:10;5.67;;;1.73;;
15878;SDS011;61999;51.514;14.614;2022-11-02T11:13:53;4.53;;;1.47;;
15878;SDS011;61999;51.514;14.614;2022-11-02T11:16:46;6.43;;;1.37;;
15878;SDS011;61999;51.514;14.614;2022-11-02T11:19:21;5.30;;;1.23;;
15878;SDS011;61999;51.514;14.614;2022-11-02T11:22:02;7.53;;;1.30;;
15878;SDS011;61999;51.514;14.614;2022-11-02T11:24:49;3.50;;;1.47;;
15878;SDS011;61999;51.514;14.614;2022-11-02T11:27:18;3.67;;;1.30;;
15878;SDS011;61999;51.514;14.614;2022-11-02T11:29:50;2.47;;;1.33;;
15878;SDS011;61999;51.514;14.614;2022-11-02T11:32:23;6.17;;;1.60;;
15878;SDS011;61999;51.514;14.614;2022-11-02T11:35:04;4.30;;;1.37;;
15878;SDS011;61999;51.514;14.614;2022-11-02T11:37:49;3.60;;;1.13;;
15878;SDS011;61999;51.514;14.614;2022-11-02T11:40:20;2.83;;;1.40;;
15878;SDS011;61999;51.514;14.614;2022-11-02T11:42:51;4.20;;;1.20;;
15878;SDS011;61999;51.514;14.614;2022-11-02T11:45:25;3.93;;;1.37;;
15878;SDS011;61999;51.514;14.614;2022-11-02T11:47:55;5.27;;;1.77;;
15878;SDS011;61999;51.514;14.614;2022-11-02T11:50:33;4.77;;;1.70;;
15878;SDS011;61999;51.514;14.614;2022-11-02T11:53:08;3.03;;;1.40;;
15878;SDS011;61999;51.514;14.614;2022-11-02T11:55:53;3.20;;;1.20;;
15878;SDS011;61999;51.514;14.614;2022-11-02T11:58:25;3.70;;;1.23;;
15878;SDS011;61999;51.514;14.614;2022-11-02T12:01:03;3.03;;;1.20;;
15878;SDS011;61999;51.514;14.614;2022-11-02T12:03:48;4.30;;;1.70;;
15878;SDS011;61999;51.514;14.614;2022-11-02T12:06:19;4.50;;;1.20;;
15878;SDS011;61999;51.514;14.614;2022-11-02T12:08:57;4.63;;;1.40;;
15878;SDS011;61999;51.514;14.614;2022-11-02T12:11:38;5.70;;;1.70;;
15878;SDS011;61999;51.514;14.614;2022-11-02T12:14:22;4.77;;;1.30;;
15878;SDS011;61999;51.514;14.614;2022-11-02T12:17:15;5.33;;;1.10;;
15878;SDS011;61999;51.514;14.614;2022-11-02T12:20:11;3.10;;;1.30;;
15878;SDS011;61999;51.514;14.614;2022-11-02T12:23:03;2.60;;;1.30;;
15878;SDS011;61999;51.514;14.614;2022-11-02T12:25:48;5.10;;;2.17;;
15878;SDS011;61999;51.514;14.614;2022-11-02T12:28:27;4.67;;;1.80;;
15878;SDS011;61999;51.514;14.614;2022-11-02T12:31:12;4.50;;;2.50;;
15878;SDS011;61999;51.514;14.614;2022-11-02T12:34:07;5.47;;;2.47;;
15878;SDS011;61999;51.514;14.614;2022-11-02T12:36:56;3.77;;;1.40;;
15878;SDS011;61999;51.514;14.614;2022-11-02T12:40:02;5.77;;;2.13;;
15878;SDS011;61999;51.514;14.614;2022-11-02T12:42:59;4.10;;;2.13;;
15878;SDS011;61999;51.514;14.614;2022-11-02T12:45:45;3.43;;;1.63;;
15878;SDS011;61999;51.514;14.614;2022-11-02T12:48:28;3.77;;;1.40;;
15878;SDS011;61999;51.514;14.614;2022-11-02T12:51:10;4.67;;;1.80;;
15878;SDS011;61999;51.514;14.614;2022-11-02T12:53:44;5.13;;;1.40;;
15878;SDS011;61999;51.514;14.614;2022-11-02T12:56:18;4.07;;;1.70;;
15878;SDS011;61999;51.514;14.614;2022-11-02T12:58:53;2.77;;;1.67;;
15878;SDS011;61999;51.514;14.614;2022-11-02T13:01:24;5.13;;;2.00;;
15878;SDS011;61999;51.514;14.614;2022-11-02T13:03:59;3.70;;;1.47;;
15878;SDS011;61999;51.514;14.614;2022-11-02T13:06:42;4.67;;;1.77;;
15878;SDS011;61999;51.514;14.614;2022-11-02T13:09:16;8.73;;;2.10;;
15878;SDS011;61999;51.514;14.614;2022-11-02T13:11:53;6.17;;;1.40;;
15878;SDS011;61999;51.514;14.614;2022-11-02T13:14:29;6.47;;;1.50;;
15878;SDS011;61999;51.514;14.614;2022-11-02T13:17:08;3.70;;;1.50;;
15878;SDS011;61999;51.514;14.614;2022-11-02T13:19:42;3.03;;;1.30;;
15878;SDS011;61999;51.514;14.614;2022-11-02T13:22:42;3.00;;;1.47;;
15878;SDS011;61999;51.514;14.614;2022-11-02T13:25:39;4.37;;;1.53;;
15878;SDS011;61999;51.514;14.614;2022-11-02T13:28:39;3.37;;;1.40;;
15878;SDS011;61999;51.514;14.614;2022-11-02T13:31:14;4.80;;;1.20;;
15878;SDS011;61999;51.514;14.614;2022-11-02T13:33:52;3.73;;;1.40;;
15878;SDS011;61999;51.514;14.614;2022-11-02T13:36:25;2.53;;;1.13;;
15878;SDS011;61999;51.514;14.614;2022-11-02T13:38:56;2.70;;;1.40;;
15878;SDS011;61999;51.514;14.614;2022-11-02T13:41:32;4.30;;;1.37;;
15878;SDS011;61999;51.514;14.614;2022-11-02T13:44:36;3.33;;;1.30;;
15878;SDS011;61999;51.514;14.614;2022-11-02T13:50:50;3.60;;;1.33;;
15878;SDS011;61999;51.514;14.614;2022-11-02T13:53:49;4.83;;;1.80;;
15878;SDS011;61999;51.514;14.614;2022-11-02T13:56:50;4.07;;;1.10;;
15878;SDS011;61999;51.514;14.614;2022-11-02T13:59:46;3.40;;;1.90;;
15878;SDS011;61999;51.514;14.614;2022-11-02T14:02:39;3.03;;;1.67;;
15878;SDS011;61999;51.514;14.614;2022-11-02T14:05:34;1.87;;;0.90;;
15878;SDS011;61999;51.514;14.614;2022-11-02T14:08:37;2.13;;;1.07;;
15878;SDS011;61999;51.514;14.614;2022-11-02T14:11:34;1.87;;;1.00;;
15878;SDS011;61999;51.514;14.614;2022-11-02T14:14:17;4.67;;;1.57;;
15878;SDS011;61999;51.514;14.614;2022-11-02T14:16:58;3.33;;;1.00;;
15878;SDS011;61999;51.514;14.614;2022-11-02T14:19:49;2.40;;;0.97;;
15878;SDS011;61999;51.514;14.614;2022-11-02T14:22:20;5.50;;;1.10;;
15878;SDS011;61999;51.514;14.614;2022-11-02T14:24:52;3.97;;;1.20;;
15878;SDS011;61999;51.514;14.614;2022-11-02T14:27:35;3.00;;;1.20;;
15878;SDS011;61999;51.514;14.614;2022-11-02T14:30:04;2.53;;;1.00;;
15878;SDS011;61999;51.514;14.614;2022-11-02T14:33:07;6.17;;;1.20;;
15878;SDS011;61999;51.514;14.614;2022-11-02T14:36:33;2.47;;;1.07;;
15878;SDS011;61999;51.514;14.614;2022-11-02T14:39:44;3.27;;;1.30;;
15878;SDS011;61999;51.514;14.614;2022-11-02T14:42:25;3.43;;;0.90;;
15878;SDS011;61999;51.514;14.614;2022-11-02T14:45:24;2.23;;;1.17;;
15878;SDS011;61999;51.514;14.614;2022-11-02T14:48:11;3.80;;;1.50;;
15878;SDS011;61999;51.514;14.614;2022-11-02T14:50:42;3.03;;;0.90;;
15878;SDS011;61999;51.514;14.614;2022-11-02T14:53:27;3.20;;;1.10;;
15878;SDS011;61999;51.514;14.614;2022-11-02T14:55:58;3.30;;;1.50;;
15878;SDS011;61999;51.514;14.614;2022-11-02T14:58:29;4.27;;;1.50;;
15878;SDS011;61999;51.514;14.614;2022-11-02T15:01:11;3.80;;;1.70;;
15878;SDS011;61999;51.514;14.614;2022-11-02T15:03:41;3.33;;;1.27;;
15878;SDS011;61999;51.514;14.614;2022-11-02T15:06:13;2.07;;;1.07;;
15878;SDS011;61999;51.514;14.614;2022-11-02T15:08:50;2.23;;;0.93;;
15878;SDS011;61999;51.514;14.614;2022-11-02T15:20:26;3.40;;;1.20;;
15878;SDS011;61999;51.514;14.614;2022-11-02T15:25:56;4.03;;;1.50;;
15878;SDS011;61999;51.514;14.614;2022-11-02T15:28:26;8.57;;;1.70;;
15878;SDS011;61999;51.514;14.614;2022-11-02T15:31:00;5.10;;;1.40;;
15878;SDS011;61999;51.514;14.614;2022-11-02T15:33:40;6.83;;;1.90;;
15878;SDS011;61999;51.514;14.614;2022-11-02T15:36:12;3.23;;;1.30;;
15878;SDS011;61999;51.514;14.614;2022-11-02T15:38:45;3.20;;;1.10;;
15878;SDS011;61999;51.514;14.614;2022-11-02T15:41:18;2.73;;;1.20;;
15878;SDS011;61999;51.514;14.614;2022-11-02T15:46:57;5.23;;;1.57;;
15878;SDS011;61999;51.514;14.614;2022-11-02T15:49:39;4.10;;;1.53;;
15878;SDS011;61999;51.514;14.614;2022-11-02T15:52:35;4.50;;;1.17;;